createdAt,value
2023-01-31T00:01:32.166Z,102059.72
2023-01-31T00:04:04.750Z,102071.09
2023-01-31T00:06:37.473Z,102069.16
2023-01-31T00:09:12.317Z,102067.44
2023-01-31T00:11:42.306Z,102064.84
2023-01-31T00:14:13.401Z,102076.31
2023-01-31T00:16:43.322Z,102077.19
2023-01-31T00:19:13.371Z,102068.38
2023-01-31T00:21:45.354Z,102077.91
2023-01-31T00:24:18.649Z,102076.91
2023-01-31T00:26:48.797Z,102075.88
2023-01-31T00:29:18.686Z,102068.72
2023-01-31T00:31:48.512Z,102073.94
2023-01-31T00:34:18.409Z,102064.28
2023-01-31T00:36:48.218Z,102058.84
2023-01-31T00:39:20.675Z,102062.94
2023-01-31T00:41:50.473Z,102057.56
2023-01-31T00:44:20.381Z,102050.56
2023-01-31T00:46:50.279Z,102047.59
2023-01-31T00:49:20.047Z,102039.44
2023-01-31T00:51:49.832Z,102035.72
2023-01-31T00:54:22.268Z,102040.47
2023-01-31T00:56:52.080Z,102031.63
2023-01-31T00:59:22.043Z,102029.69
2023-01-31T01:01:51.889Z,102035.59
2023-01-31T01:04:21.737Z,102040.72
2023-01-31T01:06:51.827Z,102050.94
2023-01-31T01:09:25.636Z,102043.81
2023-01-31T01:11:55.440Z,102049.94
2023-01-31T01:14:25.529Z,102056.72
2023-01-31T01:16:58.450Z,102046.97
2023-01-31T01:19:28.252Z,102052.97
2023-01-31T01:21:58.592Z,102053.78
2023-01-31T01:24:31.017Z,102046.63
2023-01-31T01:27:00.774Z,102047.19
2023-01-31T01:29:30.546Z,102048.00
2023-01-31T01:32:00.738Z,102044.25
2023-01-31T01:34:30.763Z,102044.94
2023-01-31T01:37:00.594Z,102043.13
2023-01-31T01:39:32.997Z,102040.50
2023-01-31T01:42:03.272Z,102032.81
2023-01-31T01:44:52.396Z,102042.44
2023-01-31T01:47:31.626Z,102038.13
2023-01-31T01:56:54.969Z,102028.16
2023-01-31T01:59:28.762Z,102027.34
2023-01-31T02:01:59.951Z,102009.97
2023-01-31T02:04:34.201Z,102012.03
2023-01-31T02:07:04.149Z,102013.13
2023-01-31T02:09:39.988Z,102009.06
2023-01-31T02:12:13.369Z,102014.41
2023-01-31T02:14:44.637Z,102003.97
2023-01-31T02:17:17.913Z,102009.28
2023-01-31T02:20:05.091Z,102011.22
2023-01-31T02:22:39.292Z,102016.44
2023-01-31T02:25:41.882Z,102005.22
2023-01-31T02:28:38.559Z,102000.22
2023-01-31T02:31:39.737Z,101993.28
2023-01-31T02:34:17.508Z,101987.38
2023-01-31T02:37:00.305Z,101971.91
2023-01-31T02:39:35.882Z,101982.47
2023-01-31T02:42:17.203Z,101981.78
2023-01-31T02:45:02.221Z,101961.81
2023-01-31T02:47:43.933Z,101965.31
2023-01-31T02:50:27.842Z,101963.53
2023-01-31T02:53:03.031Z,101963.31
2023-01-31T02:55:51.647Z,101956.94
2023-01-31T02:58:24.234Z,101947.88
2023-01-31T03:00:58.438Z,101943.56
2023-01-31T03:03:31.435Z,101942.56
2023-01-31T03:07:03.770Z,101937.22
2023-01-31T03:09:40.868Z,101932.69
2023-01-31T03:12:33.580Z,101933.50
2023-01-31T03:15:13.803Z,101923.63
2023-01-31T03:17:52.293Z,101914.78
2023-01-31T03:20:27.427Z,101928.72
2023-01-31T03:23:03.083Z,101918.41
2023-01-31T03:25:37.762Z,101904.34
2023-01-31T03:28:11.834Z,101905.16
2023-01-31T03:30:46.359Z,101898.13
2023-01-31T03:33:20.590Z,101896.31
2023-01-31T03:35:55.397Z,101893.69
2023-01-31T03:38:33.726Z,101894.72
2023-01-31T03:41:11.773Z,101887.88
2023-01-31T03:43:49.362Z,101872.34
2023-01-31T03:46:23.832Z,101876.78
2023-01-31T03:48:58.760Z,101870.88
2023-01-31T03:51:32.762Z,101866.66
2023-01-31T03:54:09.580Z,101879.13
2023-01-31T03:56:44.136Z,101873.91
2023-01-31T03:59:18.305Z,101871.50
2023-01-31T04:01:52.232Z,101876.84
2023-01-31T04:04:26.574Z,101875.25
2023-01-31T04:06:56.488Z,101867.50
2023-01-31T04:09:29.254Z,101849.34
2023-01-31T04:12:02.914Z,101853.06
2023-01-31T04:14:33.238Z,101851.34
2023-01-31T04:17:03.012Z,101854.28
2023-01-31T04:19:33.258Z,101848.38
2023-01-31T04:22:03.081Z,101852.13
2023-01-31T04:24:36.812Z,101843.72
2023-01-31T04:27:06.763Z,101839.50
2023-01-31T04:29:36.681Z,101842.44
2023-01-31T04:32:06.689Z,101837.41
2023-01-31T04:34:36.553Z,101837.59
2023-01-31T04:37:06.327Z,101844.56
2023-01-31T04:39:38.749Z,101841.94
2023-01-31T04:42:08.635Z,101843.66
2023-01-31T04:44:38.491Z,101832.38
2023-01-31T04:47:08.960Z,101838.63
2023-01-31T04:49:38.829Z,101825.56
2023-01-31T04:52:09.577Z,101821.25
2023-01-31T04:54:42.121Z,101820.47
2023-01-31T04:57:12.037Z,101822.25
2023-01-31T04:59:41.805Z,101828.69
2023-01-31T05:02:13.914Z,101828.69
2023-01-31T05:04:43.787Z,101829.72
2023-01-31T05:07:13.535Z,101822.88
2023-01-31T05:09:46.465Z,101818.69
2023-01-31T05:12:16.255Z,101823.09
2023-01-31T05:14:46.014Z,101824.28
2023-01-31T05:17:15.835Z,101818.28
2023-01-31T05:19:45.963Z,101820.91
2023-01-31T05:22:16.095Z,101809.63
2023-01-31T05:24:48.545Z,101813.25
2023-01-31T05:27:18.957Z,101811.53
2023-01-31T05:29:49.012Z,101796.75
2023-01-31T05:32:19.653Z,101813.44
2023-01-31T05:34:49.408Z,101803.81
2023-01-31T05:37:19.486Z,101787.22
2023-01-31T05:39:51.856Z,101776.88
2023-01-31T05:42:21.590Z,101775.97
2023-01-31T05:44:51.377Z,101769.03
2023-01-31T05:47:21.157Z,101755.16
2023-01-31T05:49:50.916Z,101755.16
2023-01-31T05:52:20.680Z,101745.72
2023-01-31T05:54:53.051Z,101760.38
2023-01-31T05:57:22.957Z,101747.31
2023-01-31T05:59:52.763Z,101736.09
2023-01-31T06:02:22.700Z,101746.53
2023-01-31T06:04:52.810Z,101739.69
2023-01-31T06:07:23.797Z,101737.09
2023-01-31T06:09:56.227Z,101725.72
2023-01-31T06:12:26.038Z,101719.59
2023-01-31T06:14:55.848Z,101724.81
2023-01-31T06:17:29.293Z,101720.47
2023-01-31T06:19:59.267Z,101716.19
2023-01-31T06:22:29.083Z,101710.97
2023-01-31T06:25:01.506Z,101702.41
2023-01-31T06:27:35.048Z,101700.69
2023-01-31T06:30:04.925Z,101709.44
2023-01-31T06:32:35.342Z,101710.34
2023-01-31T06:35:05.903Z,101694.66
2023-01-31T06:37:35.794Z,101677.25
2023-01-31T06:40:09.721Z,101680.81
2023-01-31T06:42:39.515Z,101681.69
2023-01-31T06:45:10.693Z,101668.72
2023-01-31T06:47:40.578Z,101661.09
2023-01-31T06:50:11.011Z,101652.31
2023-01-31T06:52:41.323Z,101637.56
2023-01-31T06:55:14.653Z,101631.53
2023-01-31T06:57:49.596Z,101630.69
2023-01-31T07:00:21.454Z,101635.25
2023-01-31T07:02:51.684Z,101633.53
2023-01-31T07:05:21.901Z,101648.41
2023-01-31T07:07:52.738Z,101631.94
2023-01-31T07:10:25.161Z,101642.38
2023-01-31T07:12:57.719Z,101638.06
2023-01-31T07:15:27.561Z,101640.84
2023-01-31T07:18:01.102Z,101639.25
2023-01-31T07:20:31.142Z,101620.94
2023-01-31T07:23:02.117Z,101629.69
2023-01-31T07:25:35.055Z,101631.47
2023-01-31T07:28:05.199Z,101633.13
2023-01-31T07:30:35.049Z,101633.13
2023-01-31T07:33:05.532Z,101627.88
2023-01-31T07:35:35.366Z,101619.22
2023-01-31T07:38:05.104Z,101637.53
2023-01-31T07:40:37.481Z,101620.94
2023-01-31T07:43:07.245Z,101623.63
2023-01-31T07:45:37.458Z,101609.94
2023-01-31T07:48:07.671Z,101627.44
2023-01-31T07:50:37.738Z,101605.72
2023-01-31T07:53:07.669Z,101607.44
2023-01-31T07:55:40.031Z,101611.97
2023-01-31T07:58:09.896Z,101616.19
2023-01-31T08:00:52.172Z,101599.78
2023-01-31T08:03:37.282Z,101587.63
2023-01-31T08:06:11.563Z,101591.13
2023-01-31T08:08:42.965Z,101585.19
2023-01-31T08:11:15.766Z,101592.41
2023-01-31T08:13:45.711Z,101589.78
2023-01-31T08:16:15.686Z,101591.69
2023-01-31T08:18:45.510Z,101582.22
2023-01-31T08:21:16.472Z,101590.06
2023-01-31T08:23:46.954Z,101581.41
2023-01-31T08:26:21.633Z,101584.22
2023-01-31T08:28:54.108Z,101579.97
2023-01-31T08:31:25.865Z,101580.97
2023-01-31T08:33:57.472Z,101572.41
2023-01-31T08:36:29.521Z,101565.47
2023-01-31T08:38:59.517Z,101558.72
2023-01-31T08:41:33.243Z,101544.81
2023-01-31T08:44:04.889Z,101546.59
2023-01-31T08:46:36.787Z,101544.00
2023-01-31T08:49:09.176Z,101537.25
2023-01-31T08:51:39.051Z,101543.56
2023-01-31T08:54:10.622Z,101538.41
2023-01-31T08:56:43.368Z,101535.88
2023-01-31T08:59:14.669Z,101542.09
2023-01-31T09:01:46.790Z,101526.41
2023-01-31T09:04:16.794Z,101523.91
2023-01-31T09:06:46.648Z,101532.63
2023-01-31T09:09:16.449Z,101537.88
2023-01-31T09:11:48.832Z,101528.31
2023-01-31T09:14:18.665Z,101510.00
2023-01-31T09:16:48.767Z,101519.56
2023-01-31T09:19:18.595Z,101512.59
2023-01-31T09:21:48.406Z,101515.31
2023-01-31T09:24:18.201Z,101524.16
2023-01-31T09:26:50.775Z,101507.66
2023-01-31T09:29:20.717Z,101521.72
2023-01-31T09:31:53.967Z,101512.09
2023-01-31T09:34:24.062Z,101508.66
2023-01-31T09:36:55.656Z,101505.13
2023-01-31T09:39:25.564Z,101502.53
2023-01-31T09:42:01.977Z,101499.91
2023-01-31T09:44:36.082Z,101519.09
2023-01-31T09:47:13.447Z,101509.53
2023-01-31T09:49:50.851Z,101520.84
2023-01-31T09:52:20.901Z,101516.59
2023-01-31T09:54:50.816Z,101521.91
2023-01-31T09:57:34.495Z,101520.38
2023-01-31T10:00:16.524Z,101515.22
2023-01-31T10:03:03.830Z,101509.09
2023-01-31T10:05:41.713Z,101516.03
2023-01-31T10:08:21.059Z,101528.22
2023-01-31T10:10:55.418Z,101536.16
2023-01-31T10:13:35.394Z,101531.81
2023-01-31T10:16:17.399Z,101525.69
2023-01-31T10:18:52.084Z,101542.38
2023-01-31T10:21:25.931Z,101538.03
2023-01-31T10:23:59.702Z,101550.41
2023-01-31T10:26:32.653Z,101539.94
2023-01-31T10:29:13.882Z,101539.84
2023-01-31T10:31:47.816Z,101539.03
2023-01-31T10:34:21.013Z,101536.53
2023-01-31T10:36:55.935Z,101529.63
2023-01-31T10:39:30.196Z,101531.44
2023-01-31T10:42:11.183Z,101531.72
2023-01-31T10:44:55.111Z,101530.00
2023-01-31T10:47:32.158Z,101517.91
2023-01-31T10:50:01.960Z,101512.69
2023-01-31T10:52:52.683Z,101514.56
2023-01-31T10:55:43.412Z,101505.09
2023-01-31T10:58:16.679Z,101506.97
2023-01-31T11:00:50.229Z,101501.81
2023-01-31T11:03:20.284Z,101492.22
2023-01-31T11:05:53.230Z,101498.56
2023-01-31T11:08:37.990Z,101497.09
2023-01-31T11:11:10.896Z,101496.22
2023-01-31T11:13:41.319Z,101498.81
2023-01-31T11:16:15.633Z,101505.22
2023-01-31T11:18:48.993Z,101504.28
2023-01-31T11:21:24.436Z,101499.97
2023-01-31T11:24:01.963Z,101500.03
2023-01-31T11:26:34.500Z,101491.47
2023-01-31T11:29:10.186Z,101499.47
2023-01-31T11:31:47.717Z,101489.19
2023-01-31T11:34:25.916Z,101471.03
2023-01-31T11:36:56.098Z,101481.59
2023-01-31T11:39:32.084Z,101474.63
2023-01-31T11:42:09.497Z,101462.53
2023-01-31T11:44:39.260Z,101466.09
2023-01-31T11:47:15.964Z,101466.31
2023-01-31T11:49:46.389Z,101451.63
2023-01-31T11:52:18.209Z,101457.03
2023-01-31T11:54:52.305Z,101463.38
2023-01-31T11:57:27.352Z,101458.28
2023-01-31T12:00:00.253Z,101438.38
2023-01-31T12:02:37.960Z,101443.78
2023-01-31T12:05:16.920Z,101434.38
2023-01-31T12:07:50.343Z,101439.75
2023-01-31T12:10:35.479Z,101447.13
2023-01-31T12:13:18.938Z,101428.06
2023-01-31T12:15:56.026Z,101433.53
2023-01-31T12:18:47.825Z,101435.59
2023-01-31T12:21:19.379Z,101423.53
2023-01-31T12:24:01.248Z,101425.50
2023-01-31T12:26:42.926Z,101419.44
2023-01-31T12:29:27.379Z,101417.88
2023-01-31T12:32:19.985Z,101395.34
2023-01-31T12:35:22.611Z,101389.44
2023-01-31T12:38:06.995Z,101396.66
2023-01-31T12:40:42.961Z,101398.59
2023-01-31T12:43:32.008Z,101386.44
2023-01-31T12:46:13.656Z,101374.31
2023-01-31T12:49:30.717Z,101384.13
2023-01-31T12:52:12.973Z,101373.88
2023-01-31T12:54:54.764Z,101383.69
2023-01-31T12:57:33.507Z,101384.69
2023-01-31T13:00:18.475Z,101383.94
2023-01-31T13:02:57.810Z,101389.22
2023-01-31T13:05:31.986Z,101391.28
2023-01-31T13:08:11.362Z,101392.22
2023-01-31T13:10:44.377Z,101393.16
2023-01-31T13:13:20.729Z,101394.84
2023-01-31T13:15:54.828Z,101387.81
2023-01-31T13:18:26.710Z,101400.84
2023-01-31T13:21:02.035Z,101395.69
2023-01-31T13:23:40.996Z,101411.56
2023-01-31T13:26:17.223Z,101408.06
2023-01-31T13:28:52.652Z,101410.59
2023-01-31T13:31:26.493Z,101423.72
2023-01-31T13:34:03.251Z,101408.81
2023-01-31T13:36:39.598Z,101430.63
2023-01-31T13:39:18.639Z,101428.16
2023-01-31T13:41:48.492Z,101430.84
2023-01-31T13:44:18.635Z,101428.28
2023-01-31T13:46:52.996Z,101421.56
2023-01-31T13:49:29.479Z,101426.88
2023-01-31T13:52:02.183Z,101426.88
2023-01-31T13:54:38.287Z,101414.66
2023-01-31T13:57:09.413Z,101407.59
2023-01-31T13:59:40.807Z,101413.75
2023-01-31T14:02:21.899Z,101398.78
2023-01-31T14:04:51.821Z,101412.56
2023-01-31T14:07:26.850Z,101415.09
2023-01-31T14:10:26.609Z,101426.50
2023-01-31T14:13:31.122Z,101425.66
2023-01-31T14:16:01.871Z,101421.09
2023-01-31T14:18:45.651Z,101419.44
2023-01-31T14:22:00.316Z,101425.44
2023-01-31T14:25:08.598Z,101434.06
2023-01-31T14:27:49.245Z,101440.00
2023-01-31T14:30:42.333Z,101447.78
2023-01-31T14:33:30.799Z,101445.06
2023-01-31T14:36:16.358Z,101449.56
2023-01-31T14:39:06.934Z,101454.91
2023-01-31T14:41:54.010Z,101443.44
2023-01-31T14:44:35.103Z,101449.34
2023-01-31T14:47:26.491Z,101457.97
2023-01-31T14:50:43.642Z,101469.19
2023-01-31T14:53:35.686Z,101472.53
2023-01-31T14:56:27.852Z,101456.75
2023-01-31T14:58:57.812Z,101449.53
2023-01-31T15:01:36.429Z,101451.19
2023-01-31T15:04:09.355Z,101463.50
2023-01-31T15:06:44.247Z,101469.53
2023-01-31T15:09:29.063Z,101465.13
2023-01-31T15:12:01.426Z,101473.81
2023-01-31T15:14:41.224Z,101479.06
2023-01-31T15:17:32.042Z,101464.97
2023-01-31T15:20:19.306Z,101477.94
2023-01-31T15:22:50.539Z,101478.59
2023-01-31T15:25:30.243Z,101470.72
2023-01-31T15:28:00.610Z,101473.09
2023-01-31T15:30:34.786Z,101485.97
2023-01-31T15:33:09.557Z,101486.69
2023-01-31T15:35:53.115Z,101487.44
2023-01-31T15:38:31.370Z,101491.69
2023-01-31T15:41:22.816Z,101493.38
2023-01-31T15:43:54.559Z,101482.59
2023-01-31T15:46:27.192Z,101499.84
2023-01-31T15:48:57.419Z,101506.56
2023-01-31T15:51:31.150Z,101505.63
2023-01-31T15:54:06.090Z,101501.03
2023-01-31T15:56:37.768Z,101500.94
2023-01-31T15:59:15.148Z,101510.25
2023-01-31T16:01:50.810Z,101516.31
2023-01-31T16:04:21.083Z,101523.09
2023-01-31T16:06:54.451Z,101512.47
2023-01-31T16:09:29.685Z,101521.16
2023-01-31T16:12:00.761Z,101528.03
2023-01-31T16:14:31.352Z,101538.34
2023-01-31T16:17:02.243Z,101521.47
2023-01-31T16:19:36.042Z,101536.28
2023-01-31T16:22:26.842Z,101531.94
2023-01-31T16:24:58.932Z,101539.66
2023-01-31T16:27:30.860Z,101531.59
2023-01-31T16:30:03.192Z,101531.38
2023-01-31T16:32:36.178Z,101532.00
2023-01-31T16:35:08.784Z,101538.75
2023-01-31T16:37:43.599Z,101552.50
2023-01-31T16:40:23.279Z,101547.00
2023-01-31T16:42:53.621Z,101550.34
2023-01-31T16:45:34.650Z,101552.88
2023-01-31T16:48:24.087Z,101550.19
2023-01-31T16:50:56.161Z,101564.06
2023-01-31T16:53:35.169Z,101566.63
2023-01-31T16:56:25.155Z,101548.13
2023-01-31T16:58:57.847Z,101561.75
2023-01-31T17:01:30.729Z,101560.75
2023-01-31T17:04:20.174Z,101570.44
2023-01-31T17:06:53.986Z,101560.84
2023-01-31T17:09:27.330Z,101558.34
2023-01-31T17:11:57.762Z,101561.75
2023-01-31T17:14:27.658Z,101560.75
2023-01-31T17:16:57.531Z,101563.31
2023-01-31T17:19:27.314Z,101570.97
2023-01-31T17:21:57.471Z,101560.41
2023-01-31T17:24:29.920Z,101562.03
2023-01-31T17:26:59.749Z,101559.25
2023-01-31T17:29:29.518Z,101558.34
2023-01-31T17:32:01.402Z,101556.47
2023-01-31T17:34:31.970Z,101569.44
2023-01-31T17:37:02.152Z,101571.16
2023-01-31T17:39:34.728Z,101553.47
2023-01-31T17:42:04.815Z,101558.69
2023-01-31T17:44:35.155Z,101562.97
2023-01-31T17:47:04.978Z,101548.97
2023-01-31T17:49:35.141Z,101548.88
2023-01-31T17:52:05.241Z,101554.00
2023-01-31T17:54:37.601Z,101558.34
2023-01-31T17:57:07.506Z,101557.47
2023-01-31T17:59:37.974Z,101553.13
2023-01-31T18:02:07.958Z,101552.22
2023-01-31T18:04:38.235Z,101559.19
2023-01-31T18:07:08.042Z,101546.00
2023-01-31T18:09:40.474Z,101551.13
2023-01-31T18:12:11.150Z,101543.28
2023-01-31T18:14:40.935Z,101541.47
2023-01-31T18:17:10.895Z,101550.84
2023-01-31T18:19:41.006Z,101566.47
2023-01-31T18:22:10.838Z,101560.25
2023-01-31T18:24:44.864Z,101568.09
2023-01-31T18:27:15.003Z,101546.28
2023-01-31T18:29:44.819Z,101543.56
2023-01-31T18:32:14.600Z,101567.91
2023-01-31T18:34:44.433Z,101555.63
2023-01-31T18:37:20.368Z,101567.03
2023-01-31T18:39:56.752Z,101564.41
2023-01-31T18:42:26.686Z,101567.03
2023-01-31T18:44:56.436Z,101564.31
2023-01-31T18:47:26.295Z,101562.69
2023-01-31T18:49:56.281Z,101564.41
2023-01-31T18:52:26.172Z,101574.94
2023-01-31T18:54:58.819Z,101565.38
2023-01-31T18:57:28.929Z,101557.63
2023-01-31T18:59:58.796Z,101560.13
2023-01-31T19:02:30.680Z,101554.91
2023-01-31T19:05:02.300Z,101550.59
2023-01-31T19:07:34.767Z,101556.56
2023-01-31T19:10:07.833Z,101557.44
2023-01-31T19:12:39.284Z,101557.19
2023-01-31T19:15:10.986Z,101557.06
2023-01-31T19:17:41.058Z,101552.66
2023-01-31T19:20:12.585Z,101570.16
2023-01-31T19:22:42.414Z,101569.25
2023-01-31T19:25:14.874Z,101563.31
2023-01-31T19:27:45.835Z,101568.72
2023-01-31T19:30:17.205Z,101558.19
2023-01-31T19:32:47.273Z,101569.53
2023-01-31T19:35:17.251Z,101567.91
2023-01-31T19:37:47.694Z,101569.72
2023-01-31T19:40:20.531Z,101557.63
2023-01-31T19:42:50.384Z,101558.53
2023-01-31T19:45:22.321Z,101566.31
2023-01-31T19:47:52.772Z,101568.00
2023-01-31T19:50:22.653Z,101564.59
2023-01-31T19:52:52.429Z,101553.22
2023-01-31T19:55:24.969Z,101559.25
2023-01-31T19:57:54.770Z,101563.69
2023-01-31T20:00:24.924Z,101569.81
2023-01-31T20:02:57.692Z,101559.41
2023-01-31T20:05:27.593Z,101579.56
2023-01-31T20:07:57.410Z,101565.66
2023-01-31T20:10:31.225Z,101567.47
2023-01-31T20:13:02.716Z,101566.47
2023-01-31T20:15:33.092Z,101578.72
2023-01-31T20:18:02.890Z,101570.09
2023-01-31T20:20:32.826Z,101576.13
2023-01-31T20:23:03.202Z,101567.38
2023-01-31T20:25:35.991Z,101572.59
2023-01-31T20:28:05.822Z,101568.09
2023-01-31T20:30:35.666Z,101575.94
2023-01-31T20:33:05.513Z,101578.44
2023-01-31T20:35:35.310Z,101569.63
2023-01-31T20:38:05.154Z,101564.31
2023-01-31T20:40:38.032Z,101566.75
2023-01-31T20:43:08.536Z,101568.47
2023-01-31T20:45:38.329Z,101557.00
2023-01-31T20:48:09.014Z,101561.34
2023-01-31T20:50:38.840Z,101557.00
2023-01-31T20:53:08.841Z,101555.19
2023-01-31T20:55:41.632Z,101543.81
2023-01-31T20:58:13.709Z,101556.72
2023-01-31T21:00:43.609Z,101556.72
2023-01-31T21:03:13.497Z,101559.22
2023-01-31T21:05:44.510Z,101548.78
2023-01-31T21:08:14.352Z,101555.72
2023-01-31T21:10:52.050Z,101543.47
2023-01-31T21:13:22.328Z,101542.66
2023-01-31T21:15:54.608Z,101549.50
2023-01-31T21:18:25.666Z,101552.09
2023-01-31T21:20:55.672Z,101558.16
2023-01-31T21:23:25.670Z,101547.69
2023-01-31T21:26:03.594Z,101558.16
2023-01-31T21:28:33.545Z,101558.97
2023-01-31T21:31:04.435Z,101557.25
2023-01-31T21:33:34.657Z,101554.66
2023-01-31T21:36:10.726Z,101545.09
2023-01-31T21:38:40.787Z,101541.47
2023-01-31T21:41:26.743Z,101530.94
2023-01-31T21:43:56.698Z,101536.84
2023-01-31T21:46:27.989Z,101537.50
2023-01-31T21:48:58.143Z,101548.03
2023-01-31T21:51:28.493Z,101543.72
2023-01-31T21:53:58.569Z,101536.84
2023-01-31T21:56:31.127Z,101543.91
2023-01-31T21:59:01.119Z,101536.16
2023-01-31T22:01:33.127Z,101535.25
2023-01-31T22:04:03.258Z,101537.97
2023-01-31T22:06:38.118Z,101537.97
2023-01-31T22:09:09.975Z,101551.13
2023-01-31T22:11:42.514Z,101547.53
2023-01-31T22:14:14.200Z,101548.53
2023-01-31T22:16:44.837Z,101543.28
2023-01-31T22:19:15.780Z,101547.69
2023-01-31T22:21:45.905Z,101532.84
2023-01-31T22:24:15.675Z,101530.22
2023-01-31T22:26:48.191Z,101536.41
2023-01-31T22:29:18.662Z,101540.84
2023-01-31T22:31:48.692Z,101529.56
2023-01-31T22:34:19.492Z,101524.44
2023-01-31T22:36:49.257Z,101526.16
2023-01-31T22:39:19.013Z,101514.06
2023-01-31T22:41:51.498Z,101518.38
2023-01-31T22:44:21.413Z,101519.28
2023-01-31T22:46:51.321Z,101509.66
2023-01-31T22:49:21.202Z,101513.16
2023-01-31T22:51:50.956Z,101508.81
2023-01-31T22:54:21.317Z,101507.94
2023-01-31T22:56:53.683Z,101501.97
2023-01-31T22:59:23.688Z,101500.25
2023-01-31T23:01:53.501Z,101498.47
2023-01-31T23:04:23.656Z,101485.38
2023-01-31T23:06:53.554Z,101492.34
2023-01-31T23:09:23.618Z,101491.50
2023-01-31T23:11:56.044Z,101491.50
2023-01-31T23:14:25.812Z,101492.34
2023-01-31T23:17:08.053Z,101494.94
2023-01-31T23:19:38.021Z,101486.28
2023-01-31T23:22:07.806Z,101499.28
2023-01-31T23:24:38.403Z,101493.97
2023-01-31T23:27:10.823Z,101480.88
2023-01-31T23:29:40.603Z,101470.31
2023-01-31T23:32:10.373Z,101473.75
2023-01-31T23:34:40.159Z,101477.38
2023-01-31T23:37:10.081Z,101480.06
2023-01-31T23:39:39.866Z,101480.88
2023-01-31T23:42:12.234Z,101456.44
2023-01-31T23:44:42.070Z,101473.88
2023-01-31T23:47:12.554Z,101467.69
2023-01-31T23:49:42.308Z,101463.41
2023-01-31T23:52:12.760Z,101459.84
2023-01-31T23:54:42.523Z,101457.34
2023-01-31T23:57:14.945Z,101452.00
2023-01-31T23:59:45.590Z,101439.88
